Time;durP1;ratioP1;P1;durP2;ratioP2;P2;SDS_P1;SDS_P2;PMS_P1;PMS_P2;Temp;Humidity;BMP_temperature;BMP_pressure;BME280_temperature;BME280_humidity;BME280_pressure;Samples;Min_cycle;Max_cycle;Signal;HPM_P1;HPM_P2
2021/10/28 00:14:05;;;;;;;141.60;32.83;;;;;;;-145.69;100.00;72827.38;5156214;27;20191;-80
2021/10/28 00:16:34;;;;;;;156.90;36.60;;;;;;;-145.69;100.00;72823.41;5156241;27;20269;-81
2021/10/28 00:19:01;;;;;;;161.13;36.63;;;;;;;-145.69;100.00;72811.47;5156168;27;20260;-80
2021/10/28 00:21:31;;;;;;;189.60;41.30;;;;;;;-145.69;100.00;72777.63;5156100;27;20208;-79
2021/10/28 00:24:02;;;;;;;192.77;43.17;;;;;;;-145.69;100.00;72737.81;5155927;27;20204;-79
2021/10/28 00:26:29;;;;;;;226.60;47.47;;;;;;;-145.69;100.00;72711.94;5155820;27;20231;-79
2021/10/28 00:29:00;;;;;;;223.50;47.33;;;;;;;-145.69;100.00;72715.91;5155984;27;20292;-79
2021/10/28 00:31:27;;;;;;;193.03;42.23;;;;;;;-145.69;100.00;72735.81;5154393;27;20196;-80
2021/10/28 00:33:55;;;;;;;154.27;37.57;;;;;;;-145.69;100.00;72753.75;5156072;27;20195;-79
2021/10/28 00:36:22;;;;;;;158.17;39.87;;;;;;;-145.69;100.00;72763.69;5155888;27;20227;-79
2021/10/28 00:38:50;;;;;;;140.00;37.43;;;;;;;-145.69;100.00;72781.59;5155852;27;20208;-80
2021/10/28 00:41:18;;;;;;;151.70;37.83;;;;;;;-145.69;100.00;72787.56;5155454;27;20196;-80
2021/10/28 00:43:47;;;;;;;171.10;37.10;;;;;;;-145.69;100.00;72767.69;5152165;27;20192;-79
2021/10/28 00:46:15;;;;;;;261.10;60.70;;;;;;;-145.69;100.00;72765.69;5154245;27;20496;-80
2021/10/28 00:48:41;;;;;;;220.67;47.27;;;;;;;-145.69;100.00;72771.66;5155440;27;20230;-80
2021/10/28 00:51:08;;;;;;;160.13;39.43;;;;;;;-145.69;100.00;72787.56;5155222;27;20196;-79
2021/10/28 00:53:35;;;;;;;145.90;36.13;;;;;;;-145.69;100.00;72789.56;5155381;27;20228;-80
2021/10/28 00:56:04;;;;;;;127.07;33.10;;;;;;;-145.69;100.00;72833.38;5155201;27;20192;-79
2021/10/28 00:58:32;;;;;;;92.27;27.97;;;;;;;-145.69;100.00;72859.25;5155287;27;20196;-79
2021/10/28 01:00:59;;;;;;;116.97;31.87;;;;;;;-145.69;100.00;72851.28;5155253;27;20208;-79
2021/10/28 01:03:26;;;;;;;105.47;27.83;;;;;;;-145.69;100.00;72877.16;5155218;27;20208;-79
2021/10/28 01:05:55;;;;;;;131.07;31.20;;;;;;;-145.69;100.00;72879.16;5155162;27;20245;-79
2021/10/28 01:08:22;;;;;;;99.20;26.97;;;;;;;-145.69;100.00;72891.09;5155367;27;20199;-80
2021/10/28 01:10:50;;;;;;;86.87;24.53;;;;;;;-145.69;100.00;72907.00;5155140;27;20235;-80
2021/10/28 01:13:20;;;;;;;103.17;28.83;;;;;;;-145.69;100.00;72911.00;5155095;27;20222;-79
2021/10/28 01:15:48;;;;;;;95.90;25.53;;;;;;;-145.69;100.00;72920.94;5155028;27;20716;-79
2021/10/28 01:18:16;;;;;;;100.97;27.33;;;;;;;-145.69;100.00;72924.94;5154908;27;20596;-80
2021/10/28 01:20:47;;;;;;;181.63;44.57;;;;;;;-145.69;100.00;72916.97;5154104;27;20443;-79
2021/10/28 01:23:15;;;;;;;169.73;37.50;;;;;;;-145.69;100.00;72859.25;5154919;27;20200;-79
2021/10/28 01:25:50;;;;;;;174.53;38.83;;;;;;;-145.69;100.00;72827.38;5154904;27;20242;-79
2021/10/28 01:28:17;;;;;;;143.73;34.43;;;;;;;-145.69;100.00;72847.28;5155005;27;20191;-80
2021/10/28 01:30:46;;;;;;;155.77;36.87;;;;;;;-145.69;100.00;72847.28;5154653;27;20235;-79
2021/10/28 01:33:13;;;;;;;191.88;50.10;;;;;;;-145.69;100.00;72867.19;5153227;27;20428;-79
2021/10/28 01:35:40;;;;;;;173.00;38.00;;;;;;;-145.69;100.00;72871.19;5154687;27;20196;-80
2021/10/28 01:38:09;;;;;;;119.50;29.77;;;;;;;-145.69;100.00;72895.06;5154520;27;20223;-80
2021/10/28 01:40:36;;;;;;;115.10;29.90;;;;;;;-145.69;100.00;72907.00;5154352;27;20267;-79
2021/10/28 01:43:03;;;;;;;149.00;34.07;;;;;;;-145.69;100.00;72871.19;5154568;27;20563;-78
2021/10/28 01:45:30;;;;;;;152.83;35.60;;;;;;;-145.69;100.00;72847.28;5154418;27;20558;-79
2021/10/28 01:47:57;;;;;;;179.87;37.73;;;;;;;-145.69;100.00;72821.41;5154567;27;20207;-79
2021/10/28 01:50:23;;;;;;;181.37;38.10;;;;;;;-145.69;100.00;72813.47;5154215;27;20220;-80
2021/10/28 01:52:50;;;;;;;179.33;38.53;;;;;;;-145.69;100.00;72811.47;5154192;27;20223;-79
2021/10/28 01:55:18;;;;;;;162.70;39.03;;;;;;;-145.69;100.00;72803.50;5154473;27;20196;-79
2021/10/28 01:57:44;;;;;;;150.53;34.33;;;;;;;-145.69;100.00;72819.44;5154498;27;20207;-80
2021/10/28 02:00:16;;;;;;;129.87;32.87;;;;;;;-145.69;100.00;72843.31;5154349;27;20192;-79
2021/10/28 02:02:45;;;;;;;134.20;34.00;;;;;;;-145.69;100.00;72843.31;5154607;27;20290;-80
2021/10/28 02:05:12;;;;;;;120.20;30.77;;;;;;;-145.69;100.00;72875.16;5154534;27;20196;-80
2021/10/28 02:07:39;;;;;;;127.23;31.60;;;;;;;-145.69;100.00;72879.16;5154504;27;20231;-79
2021/10/28 02:10:08;;;;;;;115.87;30.57;;;;;;;-145.69;100.00;72907.00;5158733;27;20639;-79
2021/10/28 02:12:37;;;;;;;86.57;23.70;;;;;;;-145.69;100.00;72920.94;5158408;27;20207;-79
2021/10/28 02:15:04;;;;;;;87.23;24.60;;;;;;;-145.69;100.00;72942.84;5158658;27;20200;-79
2021/10/28 02:17:30;;;;;;;78.43;23.30;;;;;;;-145.69;100.00;72958.78;5158566;27;20615;-79
2021/10/28 02:19:57;;;;;;;86.10;25.00;;;;;;;-145.69;100.00;72958.78;5158463;27;20208;-80
2021/10/28 02:22:23;;;;;;;77.23;23.47;;;;;;;-145.69;100.00;72952.78;5158384;27;20195;-79
2021/10/28 02:24:50;;;;;;;102.63;26.17;;;;;;;-145.69;100.00;72948.81;5158174;27;20211;-79
2021/10/28 02:27:17;;;;;;;84.03;25.23;;;;;;;-145.69;100.00;72958.78;5158118;27;20196;-79
2021/10/28 02:29:45;;;;;;;80.77;23.53;;;;;;;-145.69;100.00;72962.75;5158232;27;20220;-79
2021/10/28 02:32:12;;;;;;;75.27;21.90;;;;;;;-145.69;100.00;72974.69;5158079;27;20196;-80
2021/10/28 02:34:39;;;;;;;87.97;24.67;;;;;;;-145.69;100.00;72966.72;5157900;27;20196;-79
2021/10/28 02:37:06;;;;;;;88.57;25.27;;;;;;;-145.69;100.00;72954.78;5158097;27;20564;-79
2021/10/28 02:39:33;;;;;;;85.10;24.57;;;;;;;-145.69;100.00;72960.75;5158017;27;20654;-79
2021/10/28 02:42:02;;;;;;;91.07;25.07;;;;;;;-145.69;100.00;72956.78;5157800;27;20204;-79
2021/10/28 02:44:29;;;;;;;105.77;25.50;;;;;;;-145.69;100.00;72954.78;5154596;27;20346;-79
2021/10/28 02:46:57;;;;;;;90.93;26.60;;;;;;;-145.69;100.00;72954.78;5157698;27;20196;-79
2021/10/28 02:49:25;;;;;;;97.80;26.00;;;;;;;-145.69;100.00;72966.72;5157765;27;20220;-79
2021/10/28 02:51:51;;;;;;;84.10;24.40;;;;;;;-145.69;100.00;72970.72;5157625;27;20231;-79
2021/10/28 02:54:20;;;;;;;127.73;31.00;;;;;;;-145.69;100.00;72930.91;5157578;27;20200;-80
2021/10/28 02:56:46;;;;;;;97.47;26.47;;;;;;;-145.69;100.00;72956.78;5157812;27;20222;-80
2021/10/28 02:59:14;;;;;;;107.20;28.20;;;;;;;-145.69;100.00;72956.78;5157825;27;20192;-80
2021/10/28 03:01:42;;;;;;;98.57;25.77;;;;;;;-145.69;100.00;72964.75;5157690;27;20199;-80
2021/10/28 03:04:10;;;;;;;130.53;30.20;;;;;;;-145.69;100.00;72928.91;5157540;27;20244;-80
2021/10/28 03:06:38;;;;;;;125.77;29.30;;;;;;;-145.69;100.00;72926.91;5157728;27;20215;-79
2021/10/28 03:09:05;;;;;;;144.47;33.53;;;;;;;-145.69;100.00;72901.03;5157627;27;20227;-80
2021/10/28 03:11:32;;;;;;;122.57;32.47;;;;;;;-145.69;100.00;72918.97;5157896;27;20196;-79
2021/10/28 03:13:58;;;;;;;124.73;29.33;;;;;;;-145.69;100.00;72930.91;5157903;27;20212;-79
2021/10/28 03:16:30;;;;;;;139.50;31.77;;;;;;;-145.69;100.00;72918.97;5157722;27;20198;-80
2021/10/28 03:27:06;;;;;;;182.03;39.03;;;;;;;-145.69;100.00;72843.31;5157467;27;20702;-80
2021/10/28 03:29:33;;;;;;;199.93;41.87;;;;;;;-145.69;100.00;72821.41;5157305;27;20589;-79
2021/10/28 03:32:00;;;;;;;251.10;47.27;;;;;;;-145.69;100.00;72765.69;5156516;27;20277;-80
2021/10/28 03:34:26;;;;;;;230.63;45.80;;;;;;;-145.69;100.00;72775.63;5157510;27;20203;-79
2021/10/28 03:37:02;;;;;;;209.07;42.43;;;;;;;-145.69;100.00;72789.56;5157303;27;20222;-79
2021/10/28 03:39:44;;;;;;;163.70;36.30;;;;;;;-145.69;100.00;72837.34;5157115;27;20195;-79
2021/10/28 04:05:00;;;;;;;259.70;48.00;;;;;;;-145.69;100.00;72703.97;5097834;27;20205;-79
2021/10/28 04:21:22;;;;;;;285.47;53.17;;;;;;;-145.69;100.00;72622.38;5150613;27;20681;-79
2021/10/28 04:29:18;;;;;;;179.83;39.37;;;;;;;-145.69;100.00;72678.09;5156149;27;20592;-79
2021/10/28 04:31:44;;;;;;;209.87;43.93;;;;;;;-145.69;100.00;72644.25;5154955;27;20287;-79
2021/10/28 04:34:12;;;;;;;234.93;47.27;;;;;;;-145.69;100.00;72630.31;5152470;27;20204;-79
2021/10/28 04:36:39;;;;;;;245.47;47.43;;;;;;;-145.69;100.00;72628.34;5155726;27;20570;-78
2021/10/28 04:39:07;;;;;;;268.17;51.40;;;;;;;-145.69;100.00;72594.50;5156119;27;20240;-79
2021/10/28 04:41:36;;;;;;;247.60;48.50;;;;;;;-145.69;100.00;72612.41;5155926;27;20204;-79
2021/10/28 04:44:06;;;;;;;255.00;49.47;;;;;;;-145.69;100.00;72614.41;5155706;27;20199;-79
2021/10/28 04:46:32;;;;;;;224.03;44.07;;;;;;;-145.69;100.00;72632.31;5155972;27;20188;-79
2021/10/28 04:48:59;;;;;;;204.63;43.37;;;;;;;-145.69;100.00;72628.34;5155623;27;20207;-80
2021/10/28 04:51:25;;;;;;;200.33;41.70;;;;;;;-145.69;100.00;72648.25;5155673;27;20251;-79
2021/10/28 04:53:52;;;;;;;154.87;39.27;;;;;;;-145.69;100.00;72678.09;5155717;27;20201;-79
2021/10/28 04:56:18;;;;;;;160.57;36.33;;;;;;;-145.69;100.00;72698.00;5155648;27;20201;-79
2021/10/28 04:58:46;;;;;;;178.17;37.97;;;;;;;-145.69;100.00;72713.94;5155456;27;20207;-79
2021/10/28 05:01:13;;;;;;;179.27;38.33;;;;;;;-145.69;100.00;72696.00;5155252;27;20196;-79
2021/10/28 05:03:39;;;;;;;191.30;39.37;;;;;;;-145.69;100.00;72696.00;5155507;27;20200;-79
2021/10/28 05:06:06;;;;;;;196.60;39.20;;;;;;;-145.69;100.00;72709.94;5155553;27;20192;-79
2021/10/28 05:08:34;;;;;;;182.67;39.87;;;;;;;-145.69;100.00;72694.03;5155462;27;20230;-79
2021/10/28 05:11:01;;;;;;;232.80;45.23;;;;;;;-145.69;100.00;72642.28;5155245;27;20328;-79
2021/10/28 05:13:27;;;;;;;214.77;41.13;;;;;;;-145.69;100.00;72660.19;5155107;27;20559;-79
2021/10/28 05:15:55;;;;;;;194.20;39.33;;;;;;;-145.69;100.00;72670.13;5155108;27;20199;-79
2021/10/28 05:18:23;;;;;;;211.47;41.80;;;;;;;-145.69;100.00;72682.09;5155356;27;20566;-80
2021/10/28 05:20:51;;;;;;;200.93;42.70;;;;;;;-145.69;100.00;72672.13;5155180;27;20195;-80
2021/10/28 05:23:18;;;;;;;160.43;37.90;;;;;;;-145.69;100.00;72698.00;5155195;27;20227;-79
2021/10/28 05:25:47;;;;;;;192.30;39.20;;;;;;;-145.69;100.00;72705.97;5155164;27;20196;-79
2021/10/28 05:28:14;;;;;;;148.67;36.70;;;;;;;-145.69;100.00;72717.91;5154888;27;20685;-80
2021/10/28 05:30:40;;;;;;;191.47;39.60;;;;;;;-145.69;100.00;72731.84;5154283;27;20601;-79
2021/10/28 05:33:08;;;;;;;155.03;35.77;;;;;;;-145.69;100.00;72735.81;5155006;27;20211;-80
2021/10/28 05:35:35;;;;;;;117.73;28.00;;;;;;;-145.69;100.00;72769.66;5154780;27;20196;-79
2021/10/28 05:38:01;;;;;;;171.90;35.97;;;;;;;-145.69;100.00;72717.91;5154707;27;20204;-79
2021/10/28 05:40:28;;;;;;;195.67;40.00;;;;;;;-145.69;100.00;72684.06;5154801;27;20192;-79
2021/10/28 05:42:55;;;;;;;193.40;39.67;;;;;;;-145.69;100.00;72662.19;5154588;27;20204;-80
2021/10/28 05:45:22;;;;;;;212.53;43.03;;;;;;;-145.69;100.00;72660.19;5154719;27;20192;-79
2021/10/28 05:47:50;;;;;;;202.33;41.67;;;;;;;-145.69;100.00;72656.22;5154742;27;20209;-79
2021/10/28 05:50:20;;;;;;;210.73;43.67;;;;;;;-145.69;100.00;72660.19;5154725;27;20627;-80
2021/10/28 05:52:48;;;;;;;206.53;40.57;;;;;;;-145.69;100.00;72650.22;5154721;27;20228;-79
2021/10/28 05:55:15;;;;;;;203.87;42.73;;;;;;;-145.69;100.00;72660.19;5154739;27;20248;-79
2021/10/28 05:57:41;;;;;;;205.17;41.63;;;;;;;-145.69;100.00;72656.22;5154671;27;20200;-80
2021/10/28 06:00:09;;;;;;;179.67;38.40;;;;;;;-145.69;100.00;72690.03;5154380;27;20206;-80
2021/10/28 06:02:36;;;;;;;189.00;39.17;;;;;;;-145.69;100.00;72698.00;5154792;27;20196;-79
2021/10/28 06:05:03;;;;;;;177.00;38.40;;;;;;;-145.69;100.00;72703.97;5154026;27;20204;-80
2021/10/28 06:07:31;;;;;;;206.50;40.30;;;;;;;-145.69;100.00;72690.03;5154191;27;20200;-80
2021/10/28 06:09:57;;;;;;;193.63;41.13;;;;;;;-145.69;100.00;72692.03;5154428;27;20204;-80
2021/10/28 06:12:26;;;;;;;189.87;37.50;;;;;;;-145.69;100.00;72717.91;5154354;27;20192;-79
2021/10/28 06:14:55;;;;;;;167.07;35.97;;;;;;;-145.69;100.00;72723.88;5154670;27;20245;-79
2021/10/28 06:17:29;;;;;;;162.80;35.80;;;;;;;-145.69;100.00;72723.88;5154098;27;20562;-79
2021/10/28 06:19:56;;;;;;;167.93;35.30;;;;;;;-145.69;100.00;72741.78;5154390;27;20207;-79
2021/10/28 06:22:22;;;;;;;164.10;33.50;;;;;;;-145.69;100.00;72763.69;5154230;27;20674;-79
2021/10/28 06:24:50;;;;;;;182.30;37.17;;;;;;;-145.69;100.00;72711.94;5153816;27;20192;-79
2021/10/28 06:27:16;;;;;;;233.67;40.57;;;;;;;-145.69;100.00;72700.00;5154098;27;20200;-79
2021/10/28 06:29:43;;;;;;;200.80;38.07;;;;;;;-145.69;100.00;72719.91;5149221;27;20196;-79
2021/10/28 06:32:11;;;;;;;200.30;38.73;;;;;;;-145.69;100.00;72725.88;5151790;27;20227;-80
2021/10/28 06:34:42;;;;;;;177.67;36.17;;;;;;;-145.69;100.00;72727.88;5153468;27;20200;-78
2021/10/28 06:37:08;;;;;;;225.13;38.70;;;;;;;-145.69;100.00;72715.91;5136499;27;20197;-79
2021/10/28 06:39:35;;;;;;;203.90;40.47;;;;;;;-145.69;100.00;72723.88;5133055;28;20201;-79
2021/10/28 06:42:05;;;;;;;216.40;39.93;;;;;;;-145.69;100.00;72711.94;5133042;28;20587;-79
2021/10/28 06:44:31;;;;;;;209.77;39.27;;;;;;;-145.69;100.00;72719.91;5132931;28;20200;-79
2021/10/28 06:46:58;;;;;;;155.33;32.20;;;;;;;-145.69;100.00;72731.84;5132782;28;20199;-80
2021/10/28 06:49:29;;;;;;;193.40;37.60;;;;;;;-145.69;100.00;72729.84;5133039;28;20201;-79
2021/10/28 06:51:55;;;;;;;237.20;41.57;;;;;;;-145.69;100.00;72696.00;5132773;28;20241;-79
2021/10/28 06:54:25;;;;;;;230.87;39.83;;;;;;;-145.69;100.00;72707.97;5134583;27;20204;-78
2021/10/28 06:57:02;;;;;;;215.70;38.87;;;;;;;-145.69;100.00;72713.94;5137468;27;20197;-79
2021/10/28 07:02:18;;;;;;;229.20;38.03;;;;;;;-145.69;100.00;72723.88;5136910;27;20245;-79
2021/10/28 07:04:46;;;;;;;240.43;41.63;;;;;;;-145.69;100.00;72707.97;5137035;27;20261;-79
2021/10/28 07:07:12;;;;;;;236.53;40.57;;;;;;;-145.69;100.00;72674.13;5136929;27;20205;-79
2021/10/28 07:09:41;;;;;;;255.90;43.10;;;;;;;-145.69;100.00;72676.09;5136502;27;20219;-79
2021/10/28 07:12:14;;;;;;;254.90;41.27;;;;;;;-145.69;100.00;72676.09;5136271;27;20646;-79
2021/10/28 07:14:46;;;;;;;258.27;40.23;;;;;;;-145.69;100.00;72672.13;5136236;27;20196;-79
2021/10/28 07:17:25;;;;;;;231.97;40.17;;;;;;;-145.69;100.00;72668.16;5136862;27;20211;-79
2021/10/28 07:20:07;;;;;;;254.60;43.37;;;;;;;-145.69;100.00;72652.22;5136300;27;20802;-79
2021/10/28 07:25:41;;;;;;;217.40;37.83;;;;;;;-145.69;100.00;72652.22;5073170;28;20213;-79
2021/10/28 07:28:20;;;;;;;233.27;40.93;;;;;;;-145.69;100.00;72644.25;5125369;27;20200;-79
2021/10/28 07:31:05;;;;;;;220.80;39.47;;;;;;;-145.69;100.00;72640.28;5136435;27;20247;-79
2021/10/28 07:39:19;;;;;;;224.80;38.30;;;;;;;-145.69;100.00;72644.25;5135791;27;20203;-78
2021/10/28 08:15:06;;;;;;;150.47;30.73;;;;;;;-145.69;100.00;72437.25;5135590;27;20196;-79
2021/10/28 08:20:32;;;;;;;137.30;29.37;;;;;;;-145.69;100.00;72389.50;5117088;27;20198;-78
2021/10/28 08:23:06;;;;;;;148.70;29.70;;;;;;;-145.69;100.00;72377.53;5135341;27;20204;-79
2021/10/28 08:28:42;;;;;;;109.63;25.43;;;;;;;-145.69;100.00;72357.66;5135087;27;20249;-78
2021/10/28 08:31:09;;;;;;;132.30;25.80;;;;;;;-145.69;100.00;72337.75;5135390;27;20311;-79
2021/10/28 08:33:35;;;;;;;105.90;25.00;;;;;;;-145.69;100.00;72333.75;5135251;27;20196;-78
2021/10/28 08:36:08;;;;;;;114.43;25.50;;;;;;;-145.69;100.00;72319.81;5134928;27;20622;-78
2021/10/28 08:38:35;;;;;;;133.17;27.67;;;;;;;-145.69;100.00;72305.91;5134821;27;20201;-79
2021/10/28 08:41:04;;;;;;;123.00;25.83;;;;;;;-145.69;100.00;72289.97;5135049;27;20204;-79
2021/10/28 08:43:35;;;;;;;117.67;24.20;;;;;;;-145.69;100.00;72276.03;5134833;27;20193;-79
2021/10/28 08:46:02;;;;;;;107.97;24.70;;;;;;;-145.69;100.00;72264.09;5136800;27;20225;-79
2021/10/28 08:48:30;;;;;;;107.30;23.83;;;;;;;-145.69;100.00;72258.13;5134409;27;20197;-79
2021/10/28 08:51:05;;;;;;;86.70;21.10;;;;;;;-145.69;100.00;72244.19;5134465;27;20251;-79
2021/10/28 08:59:45;;;;;;;91.43;22.33;;;;;;;-145.69;100.00;72206.38;5089854;27;20554;-80
2021/10/28 09:25:19;;;;;;;17.80;8.37;;;;;;;-145.69;100.00;72094.94;5089692;28;20221;-81
2021/10/28 09:27:55;;;;;;;20.93;9.60;;;;;;;-145.69;100.00;72077.00;5089882;28;20617;-80
2021/10/28 09:30:36;;;;;;;16.93;8.30;;;;;;;-145.69;100.00;72047.16;5089966;28;20206;-81
2021/10/28 09:33:09;;;;;;;22.73;10.27;;;;;;;-145.69;100.00;72049.16;5090067;28;20279;-81
2021/10/28 09:36:00;;;;;;;20.07;10.47;;;;;;;-145.69;100.00;72023.28;5089857;28;20202;-81
2021/10/28 09:45:02;;;;;;;26.53;13.57;;;;;;;-145.69;100.00;72019.31;5089820;28;20565;-80
2021/10/28 09:47:34;;;;;;;28.90;13.60;;;;;;;-145.69;100.00;72023.28;5089748;28;20207;-81
2021/10/28 09:50:17;;;;;;;22.77;12.07;;;;;;;-145.69;100.00;72011.34;5089764;28;20231;-80
2021/10/28 09:53:05;;;;;;;21.67;11.33;;;;;;;-145.69;100.00;71989.44;5089570;28;20203;-81
2021/10/28 09:58:23;;;;;;;17.43;9.70;;;;;;;-145.69;100.00;71985.47;5089178;28;20248;-81
2021/10/28 10:00:49;;;;;;;21.57;10.43;;;;;;;-145.69;100.00;71967.56;5089425;28;20194;-81
2021/10/28 10:03:22;;;;;;;21.47;10.77;;;;;;;-145.69;100.00;71963.56;5089236;28;20194;-81
2021/10/28 10:05:55;;;;;;;22.70;12.75;;;;;;;-145.69;100.00;71941.69;5088298;28;20519;-81
2021/10/28 10:08:24;;;;;;;23.10;10.37;;;;;;;-145.69;100.00;71911.84;5089246;28;20679;-81
2021/10/28 10:10:51;;;;;;;21.53;10.20;;;;;;;-145.69;100.00;71899.88;5075364;28;20230;-80
2021/10/28 10:13:24;;;;;;;20.10;10.07;;;;;;;-145.69;100.00;71901.88;5075605;28;20205;-81
2021/10/28 10:15:54;;;;;;;18.83;9.37;;;;;;;-145.69;100.00;71897.91;5075675;28;20194;-81
2021/10/28 10:18:23;;;;;;;17.07;8.27;;;;;;;-145.69;100.00;71887.94;5075648;28;20284;-81
2021/10/28 10:20:55;;;;;;;16.93;8.10;;;;;;;-145.69;100.00;71870.03;5075608;28;20225;-81
2021/10/28 12:25:22;;;;;;;4.00;1.45;;;;;;;-145.69;71.32;71318.81;5028384;28;20206;-82
2021/10/28 12:28:12;;;;;;;2.35;1.40;;;;;;;-145.69;66.46;71298.94;5053341;28;20214;-81
2021/10/28 12:44:58;;;;;;;4.35;1.60;;;;;;;-145.69;64.69;71203.41;5052918;28;20256;-81
2021/10/28 12:50:40;;;;;;;2.83;1.30;;;;;;;-145.69;63.98;71215.34;5053192;28;20195;-81
2021/10/28 12:53:45;;;;;;;2.22;1.40;;;;;;;-145.69;64.74;71199.44;5052975;28;20210;-81
2021/10/28 12:56:43;;;;;;;2.67;1.40;;;;;;;-145.69;63.61;71195.47;5052905;28;20226;-81
2021/10/28 13:35:50;;;;;;;4.00;1.58;;;;;;;-145.69;59.86;71092.00;5020107;28;20222;-82
2021/10/28 13:49:14;;;;;;;2.42;1.48;;;;;;;-145.69;57.12;71038.25;5056196;28;20207;-82
2021/10/28 13:51:55;;;;;;;5.70;1.85;;;;;;;-145.69;57.63;71044.22;5056145;28;20196;-81
2021/10/28 13:54:53;;;;;;;2.60;1.50;;;;;;;-145.69;57.22;71020.34;5056069;28;20262;-82
2021/10/28 13:57:39;;;;;;;2.17;1.20;;;;;;;-145.69;50.21;70779.63;5055747;28;20697;-81
2021/10/28 14:00:34;;;;;;;3.92;1.25;;;;;;;-145.69;44.71;70562.75;5055718;28;20286;-82
2021/10/28 14:20:06;;;;;;;2.88;1.17;;;;;;;-145.69;38.14;70274.31;5055048;28;20713;-82
2021/10/28 14:31:18;;;;;;;3.25;1.25;;;;;;;-145.69;34.65;69993.81;5055631;28;20201;-81
2021/10/28 15:28:56;;;;;;;5.05;1.20;;;;;;;-145.69;38.96;70178.81;5094511;28;20205;-80
2021/10/28 15:31:48;;;;;;;2.78;1.17;;;;;;;-145.69;45.01;70481.19;5094566;28;20276;-79
2021/10/28 15:37:02;;;;;;;4.55;1.25;;;;;;;-145.69;47.40;70586.63;5094304;28;20679;-80
2021/10/28 15:39:35;;;;;;;1.73;0.88;;;;;;;-145.69;46.88;70550.81;5094222;28;20229;-80
2021/10/28 15:42:34;;;;;;;8.13;1.73;;;;;;;-145.69;46.50;70586.63;5094069;28;20198;-80
2021/10/28 15:48:34;;;;;;;3.78;1.48;;;;;;;-145.69;54.37;70916.91;5094205;28;20267;-80
2021/10/28 15:56:44;;;;;;;3.20;1.83;;;;;;;-145.69;76.36;71392.44;5093701;28;20275;-81
2021/10/28 15:59:39;;;;;;;5.97;2.00;;;;;;;-145.69;83.08;71513.81;5093635;28;20238;-81
2021/10/28 16:24:06;;;;;;;5.70;2.30;;;;;;;-145.69;100.00;71872.03;5093231;28;20201;-80
2021/10/28 16:26:35;;;;;;;3.50;1.83;;;;;;;-145.69;100.00;71887.94;5093386;28;20281;-81
2021/10/28 16:29:07;;;;;;;6.17;1.97;;;;;;;-145.69;100.00;71901.88;5093516;28;20194;-80
2021/10/28 16:31:37;;;;;;;5.33;2.13;;;;;;;-145.69;100.00;71913.81;5093566;28;20216;-79
2021/10/28 16:34:04;;;;;;;4.47;2.30;;;;;;;-145.69;100.00;71927.75;5093478;28;20197;-80
2021/10/28 16:36:32;;;;;;;4.97;2.63;;;;;;;-145.69;100.00;71943.69;5070859;28;20290;-78
2021/10/28 16:39:01;;;;;;;3.80;2.10;;;;;;;-145.69;100.00;71957.59;5052884;28;20708;-80
2021/10/28 16:41:27;;;;;;;3.63;2.33;;;;;;;-145.69;100.00;71983.47;5062267;28;20230;-78
2021/10/28 16:43:54;;;;;;;7.27;3.20;;;;;;;-145.69;100.00;72015.31;5073403;28;20210;-77
2021/10/28 16:46:23;;;;;;;6.90;2.90;;;;;;;-145.69;100.00;72017.31;5073519;28;20248;-78
2021/10/28 16:48:53;;;;;;;7.43;3.13;;;;;;;-145.69;100.00;72031.25;5073158;28;20205;-79
2021/10/28 16:51:20;;;;;;;8.50;3.53;;;;;;;-145.69;100.00;72027.25;5073255;28;20275;-79
2021/10/28 16:53:46;;;;;;;13.47;4.67;;;;;;;-145.69;100.00;72055.13;5073043;28;20208;-80
2021/10/28 16:56:14;;;;;;;7.43;3.30;;;;;;;-145.69;100.00;72082.97;5072550;28;20218;-78
2021/10/28 16:58:41;;;;;;;6.30;2.90;;;;;;;-145.69;100.00;72092.94;5072769;28;20280;-79
2021/10/28 17:01:08;;;;;;;8.93;3.10;;;;;;;-145.69;100.00;72090.94;5073074;28;20561;-78
2021/10/28 17:03:45;;;;;;;6.43;3.17;;;;;;;-145.69;100.00;72086.97;5073035;28;20203;-77
2021/10/28 17:06:14;;;;;;;6.17;3.00;;;;;;;-145.69;100.00;72086.97;5088871;28;20672;-78
2021/10/28 17:08:41;;;;;;;6.00;3.10;;;;;;;-145.69;100.00;72086.97;5093346;28;20263;-78
2021/10/28 17:11:08;;;;;;;4.00;2.40;;;;;;;-145.69;100.00;72126.78;5093285;28;20202;-79
2021/10/28 17:13:35;;;;;;;5.93;2.37;;;;;;;-145.69;100.00;72140.69;5093206;28;20198;-78
2021/10/28 17:16:02;;;;;;;10.60;3.10;;;;;;;-145.69;100.00;72126.78;5092806;28;20202;-80
2021/10/28 17:18:28;;;;;;;5.93;3.13;;;;;;;-145.69;100.00;72128.75;5093054;28;20194;-78
2021/10/28 17:20:58;;;;;;;5.03;2.83;;;;;;;-145.69;100.00;72144.69;5096415;28;20200;-78
2021/10/28 17:23:31;;;;;;;7.97;2.70;;;;;;;-145.69;100.00;72142.69;5096919;28;20672;-79
2021/10/28 17:25:59;;;;;;;4.57;2.73;;;;;;;-145.69;100.00;72150.66;5096748;28;20229;-80
2021/10/28 17:28:26;;;;;;;5.97;2.70;;;;;;;-145.69;100.00;72152.66;5096784;28;20553;-79
2021/10/28 17:30:53;;;;;;;7.23;2.93;;;;;;;-145.69;100.00;72160.59;5096914;28;20202;-80
2021/10/28 17:33:21;;;;;;;7.03;3.00;;;;;;;-145.69;100.00;72162.59;5096734;28;20198;-79
2021/10/28 17:35:48;;;;;;;6.87;3.20;;;;;;;-145.69;100.00;72164.59;5096782;28;20255;-79
2021/10/28 17:38:16;;;;;;;6.70;3.43;;;;;;;-145.69;100.00;72166.56;5096777;28;20210;-79
2021/10/28 17:40:42;;;;;;;5.67;3.00;;;;;;;-145.69;100.00;72158.63;5096554;28;20221;-80
2021/10/28 17:43:11;;;;;;;5.70;3.47;;;;;;;-145.69;100.00;72156.63;5096673;28;20202;-80
2021/10/28 17:45:39;;;;;;;6.33;3.23;;;;;;;-145.69;100.00;72174.53;5096772;28;20664;-81
2021/10/28 17:48:07;;;;;;;7.37;3.10;;;;;;;-145.69;100.00;72198.41;5084865;28;20194;-80
2021/10/28 17:50:34;;;;;;;5.80;3.10;;;;;;;-145.69;100.00;72190.47;5075751;28;20290;-78
2021/10/28 17:53:01;;;;;;;8.05;3.60;;;;;;;-145.69;100.00;72190.47;5074549;28;20438;-78
2021/10/28 17:55:29;;;;;;;7.07;3.50;;;;;;;-145.69;100.00;72164.59;5075756;28;20195;-78
2021/10/28 17:57:55;;;;;;;5.53;3.23;;;;;;;-145.69;100.00;72166.56;5075473;28;20276;-79
2021/10/28 18:00:24;;;;;;;5.33;2.80;;;;;;;-145.69;100.00;72186.47;5075376;28;20222;-80
2021/10/28 18:02:52;;;;;;;4.73;2.93;;;;;;;-145.69;100.00;72206.38;5075657;28;20203;-80
2021/10/28 18:05:19;;;;;;;3.97;2.60;;;;;;;-145.69;100.00;72214.34;5076035;28;20199;-81
2021/10/28 18:07:46;;;;;;;8.90;2.60;;;;;;;-145.69;100.00;72240.22;5075514;28;20198;-81
2021/10/28 18:10:13;;;;;;;11.00;3.10;;;;;;;-145.69;100.00;72230.25;5075796;28;20222;-79
2021/10/28 18:12:41;;;;;;;6.83;3.40;;;;;;;-145.69;100.00;72236.22;5075878;28;20213;-79
2021/10/28 18:15:10;;;;;;;11.60;3.53;;;;;;;-145.69;100.00;72238.22;5075749;28;20199;-79
2021/10/28 18:17:37;;;;;;;7.87;3.47;;;;;;;-145.69;100.00;72236.22;5075689;28;20557;-80
2021/10/28 18:20:05;;;;;;;7.17;3.20;;;;;;;-145.69;100.00;72230.25;5075576;28;20226;-80
2021/10/28 18:22:36;;;;;;;7.03;3.60;;;;;;;-145.69;100.00;72246.19;5075692;28;20207;-78
2021/10/28 18:25:04;;;;;;;7.10;3.60;;;;;;;-145.69;100.00;72238.22;5075668;28;20214;-80
2021/10/28 18:27:30;;;;;;;7.50;4.20;;;;;;;-145.69;100.00;72234.25;5078816;28;20209;-79
2021/10/28 18:30:00;;;;;;;7.70;3.87;;;;;;;-145.69;100.00;72222.31;5078534;28;20202;-78
2021/10/28 18:32:27;;;;;;;10.20;4.47;;;;;;;-145.69;100.00;72226.28;5077982;28;20206;-79
2021/10/28 18:34:53;;;;;;;13.00;4.60;;;;;;;-145.69;100.00;72220.31;5075156;28;20191;-78
2021/10/28 18:37:20;;;;;;;14.97;4.63;;;;;;;-145.69;100.00;72232.25;5075125;28;20206;-78
2021/10/28 18:39:47;;;;;;;7.50;4.30;;;;;;;-145.69;100.00;72236.22;5075358;28;20230;-79